createdAt,value
2023-01-27T00:04:08.970Z,16.23
2023-01-27T00:09:14.711Z,17.60
2023-01-27T00:14:20.110Z,17.07
2023-01-27T00:19:27.230Z,15.57
2023-01-27T00:24:38.794Z,16.47
2023-01-27T00:29:44.213Z,14.27
2023-01-27T00:34:49.953Z,15.47
2023-01-27T00:39:55.555Z,14.00
2023-01-27T00:45:18.797Z,14.77
2023-01-27T00:50:24.356Z,12.23
2023-01-27T00:55:30.753Z,12.97
2023-01-27T01:00:37.185Z,11.37
2023-01-27T01:05:42.939Z,10.47
2023-01-27T01:10:48.581Z,9.90
2023-01-27T01:15:54.070Z,8.83
2023-01-27T01:20:59.574Z,8.70
2023-01-27T01:26:06.058Z,8.40
2023-01-27T01:31:14.491Z,7.37
2023-01-27T01:36:21.770Z,8.00
2023-01-27T01:41:27.497Z,6.37
2023-01-27T01:46:32.960Z,5.73
2023-01-27T01:51:42.699Z,6.07
2023-01-27T01:57:00.865Z,5.70
2023-01-27T02:02:09.391Z,5.43
2023-01-27T02:07:38.918Z,5.00
2023-01-27T02:12:44.349Z,5.50
2023-01-27T02:17:50.613Z,6.20
2023-01-27T02:23:32.497Z,6.37
2023-01-27T02:28:38.052Z,5.93
2023-01-27T02:33:44.042Z,6.73
2023-01-27T02:38:53.672Z,6.10
2023-01-27T02:44:00.193Z,7.17
2023-01-27T02:49:06.496Z,6.90
2023-01-27T02:54:12.915Z,8.67
2023-01-27T02:59:19.953Z,9.67
2023-01-27T03:04:25.569Z,8.97
2023-01-27T03:09:31.011Z,11.97
2023-01-27T03:14:55.819Z,11.70
2023-01-27T03:20:01.471Z,12.77
2023-01-27T03:25:08.905Z,13.07
2023-01-27T03:30:14.814Z,12.63
2023-01-27T03:35:23.511Z,13.20
2023-01-27T03:40:47.442Z,11.80
2023-01-27T03:46:11.023Z,12.30
2023-01-27T03:51:17.225Z,12.83
2023-01-27T03:56:24.253Z,10.53
2023-01-27T04:01:29.729Z,10.57
2023-01-27T04:06:56.163Z,9.43
2023-01-27T04:12:04.623Z,8.47
2023-01-27T04:17:13.218Z,7.57
2023-01-27T04:22:18.956Z,8.27
2023-01-27T04:27:24.453Z,8.07
2023-01-27T04:32:30.869Z,6.97
2023-01-27T04:37:36.515Z,6.77
2023-01-27T04:42:41.977Z,6.57
2023-01-27T04:47:47.451Z,6.27
2023-01-27T04:52:52.905Z,6.17
2023-01-27T04:57:58.319Z,6.53
2023-01-27T05:03:05.341Z,6.63
2023-01-27T05:08:11.878Z,7.10
2023-01-27T05:13:17.336Z,6.33
2023-01-27T05:18:22.791Z,5.97
2023-01-27T05:23:37.248Z,6.70
2023-01-27T05:28:45.434Z,6.37
2023-01-27T05:33:53.753Z,6.27
2023-01-27T05:39:00.535Z,5.97
2023-01-27T05:44:06.728Z,5.60
2023-01-27T05:49:12.605Z,6.47
2023-01-27T05:54:18.054Z,6.20
2023-01-27T05:59:24.415Z,5.57
2023-01-27T06:04:30.387Z,5.47
2023-01-27T06:09:38.141Z,4.80
2023-01-27T06:14:43.593Z,4.17
2023-01-27T06:19:48.974Z,3.57
2023-01-27T06:24:54.580Z,2.93
2023-01-27T06:30:00.131Z,3.50
2023-01-27T06:35:06.672Z,3.57
2023-01-27T06:40:13.517Z,3.10
2023-01-27T06:45:19.358Z,2.73
2023-01-27T06:50:26.348Z,2.50
2023-01-27T06:55:32.379Z,2.10
2023-01-27T07:00:38.701Z,1.57
2023-01-27T07:05:44.794Z,2.13
2023-01-27T07:10:50.862Z,1.43
2023-01-27T07:15:57.290Z,1.70
2023-01-27T07:21:07.227Z,1.50
2023-01-27T07:26:24.582Z,1.73
2023-01-27T07:31:20.069Z,1.53
2023-01-27T07:36:25.698Z,2.13
2023-01-27T07:41:31.444Z,1.80
2023-01-27T07:46:36.960Z,1.90
2023-01-27T07:51:42.370Z,1.17
2023-01-27T07:56:49.001Z,1.30
2023-01-27T08:01:54.526Z,2.10
2023-01-27T08:07:00.120Z,1.93
2023-01-27T08:12:05.608Z,1.77
2023-01-27T08:17:11.126Z,1.73
2023-01-27T08:22:18.219Z,1.50
2023-01-27T08:27:23.963Z,2.00
2023-01-27T08:32:29.478Z,1.50
2023-01-27T08:37:34.940Z,1.70
2023-01-27T08:42:40.399Z,1.90
2023-01-27T08:47:45.829Z,2.60
2023-01-27T08:52:51.347Z,3.07
2023-01-27T08:57:57.458Z,2.97
2023-01-27T09:03:02.919Z,2.67
2023-01-27T09:08:09.440Z,3.17
2023-01-27T09:13:17.122Z,2.80
2023-01-27T09:18:22.950Z,2.57
2023-01-27T09:23:28.330Z,1.73
2023-01-27T09:28:33.793Z,1.40
2023-01-27T09:33:39.258Z,1.10
2023-01-27T09:38:54.438Z,1.27
2023-01-27T09:44:02.888Z,1.00
2023-01-27T09:49:29.415Z,1.00
2023-01-27T09:54:54.729Z,1.30
2023-01-27T10:00:06.266Z,1.57
2023-01-27T10:05:38.479Z,1.33
2023-01-27T10:10:55.676Z,1.43
2023-01-27T10:16:21.494Z,1.03
2023-01-27T10:21:30.111Z,1.73
2023-01-27T10:26:53.724Z,1.50
2023-01-27T10:32:02.355Z,1.73
2023-01-27T10:37:12.667Z,1.60
2023-01-27T10:42:36.234Z,1.17
2023-01-27T10:47:53.572Z,1.23
2023-01-27T10:53:17.067Z,1.23
2023-01-27T10:58:25.658Z,1.27
2023-01-27T11:03:34.642Z,1.57
2023-01-27T11:08:43.546Z,1.67
2023-01-27T11:13:50.585Z,1.30
2023-01-27T11:18:59.269Z,1.93
2023-01-27T11:24:07.746Z,1.27
2023-01-27T11:29:39.079Z,1.63
2023-01-27T11:34:56.568Z,0.70
2023-01-27T11:40:03.384Z,1.60
2023-01-27T11:45:18.136Z,1.20
2023-01-27T11:50:25.603Z,1.30
2023-01-27T11:55:34.092Z,1.70
2023-01-27T12:00:45.409Z,1.23
2023-01-27T12:05:56.539Z,1.03
2023-01-27T12:11:19.703Z,1.70
2023-01-27T12:16:46.352Z,1.20
2023-01-27T12:21:55.289Z,0.90
2023-01-27T12:27:02.503Z,1.30
2023-01-27T12:32:19.845Z,1.10
2023-01-27T12:37:37.303Z,1.40
2023-01-27T12:42:53.958Z,1.07
2023-01-27T12:48:02.997Z,1.10
2023-01-27T12:53:17.092Z,1.20
2023-01-27T12:58:31.853Z,1.63
2023-01-27T13:03:43.192Z,2.60
2023-01-27T13:08:51.760Z,1.00
2023-01-27T13:13:59.317Z,2.07
2023-01-27T13:19:06.629Z,2.20
2023-01-27T13:24:15.161Z,2.30
2023-01-27T13:29:23.795Z,2.20
2023-01-27T13:34:57.935Z,2.60
2023-01-27T13:40:25.598Z,1.27
2023-01-27T13:45:46.051Z,0.97
2023-01-27T13:51:09.795Z,1.33
2023-01-27T13:56:42.363Z,1.98
2023-01-27T14:01:51.360Z,3.07
2023-01-27T14:07:02.878Z,1.60
2023-01-27T14:12:17.164Z,1.87
2023-01-27T14:17:50.050Z,1.20
2023-01-27T14:23:17.118Z,1.70
2023-01-27T14:28:48.424Z,1.70
2023-01-27T14:34:19.459Z,1.63
2023-01-27T14:39:43.786Z,3.70
2023-01-27T14:45:03.680Z,3.30
2023-01-27T14:50:25.132Z,1.60
2023-01-27T14:55:33.581Z,2.53
2023-01-27T15:01:12.430Z,3.07
2023-01-27T15:06:32.968Z,1.90
2023-01-27T15:12:10.028Z,2.20
2023-01-27T15:17:23.989Z,1.70
2023-01-27T15:23:09.065Z,3.10
2023-01-27T15:28:17.241Z,2.30
2023-01-27T15:33:48.922Z,2.30
2023-01-27T15:39:15.827Z,2.50
2023-01-27T15:44:42.155Z,2.10
2023-01-27T15:49:50.148Z,2.10
2023-01-27T15:54:58.508Z,1.93
2023-01-27T16:00:07.464Z,2.23
2023-01-27T16:05:28.206Z,2.53
2023-01-27T16:10:36.126Z,3.20
2023-01-27T16:15:42.065Z,3.37
2023-01-27T16:20:59.509Z,2.47
2023-01-27T16:26:15.131Z,3.17
2023-01-27T16:31:23.812Z,3.73
2023-01-27T16:36:34.820Z,3.47
2023-01-27T16:41:41.239Z,4.00
2023-01-27T16:46:56.880Z,4.50
2023-01-27T16:52:05.946Z,4.70
2023-01-27T16:57:23.896Z,4.40
2023-01-27T17:02:32.260Z,4.37
2023-01-27T17:07:37.695Z,5.33
2023-01-27T17:12:47.027Z,5.23
2023-01-27T17:17:53.329Z,5.17
2023-01-27T17:22:59.913Z,6.10
2023-01-27T17:28:08.432Z,5.73
2023-01-27T17:33:19.950Z,5.90
2023-01-27T17:38:28.007Z,8.03
2023-01-27T17:43:37.073Z,6.97
2023-01-27T17:48:54.770Z,9.43
2023-01-27T17:54:01.789Z,15.33
2023-01-27T17:59:10.287Z,10.50
2023-01-27T18:04:16.640Z,9.23
2023-01-27T18:09:27.371Z,7.93
2023-01-27T18:14:37.025Z,7.30
2023-01-27T18:19:46.220Z,6.83
2023-01-27T18:24:55.331Z,6.93
2023-01-27T18:30:04.691Z,6.07
2023-01-27T18:35:30.973Z,6.37
2023-01-27T18:40:37.946Z,6.03
2023-01-27T18:45:47.341Z,6.93
2023-01-27T18:50:52.742Z,8.20
2023-01-27T18:55:59.997Z,8.57
2023-01-27T19:01:08.557Z,8.77
2023-01-27T19:06:17.944Z,8.87
2023-01-27T19:11:23.398Z,10.53
2023-01-27T19:16:30.834Z,8.90
2023-01-27T19:21:36.531Z,9.83
2023-01-27T19:26:42.092Z,10.83
2023-01-27T19:31:47.729Z,8.97
2023-01-27T19:36:53.478Z,10.00
2023-01-27T19:42:00.403Z,8.50
2023-01-27T19:47:12.330Z,8.13
2023-01-27T19:52:17.856Z,7.00
2023-01-27T19:57:23.470Z,8.97
2023-01-27T20:02:28.893Z,6.50
2023-01-27T20:07:34.420Z,7.20
2023-01-27T20:12:39.893Z,5.03
2023-01-27T20:17:45.796Z,6.40
2023-01-27T20:22:51.976Z,5.53
2023-01-27T20:27:59.932Z,5.13
2023-01-27T20:33:06.096Z,4.23
2023-01-27T20:38:11.527Z,4.97
2023-01-27T20:43:29.819Z,5.17
2023-01-27T20:48:24.076Z,5.83
2023-01-27T20:53:33.032Z,5.83
2023-01-27T20:58:38.624Z,3.80
2023-01-27T21:03:44.827Z,4.40
2023-01-27T21:08:50.738Z,5.03
2023-01-27T21:13:56.339Z,3.37
2023-01-27T21:19:03.134Z,2.90
2023-01-27T21:24:09.505Z,2.43
2023-01-27T21:29:15.501Z,1.57
2023-01-27T21:34:21.975Z,1.67
2023-01-27T21:39:27.460Z,1.70
2023-01-27T21:44:50.700Z,1.40
2023-01-27T21:50:02.761Z,2.20
2023-01-27T21:55:11.383Z,1.70
2023-01-27T22:00:22.653Z,1.50
2023-01-27T22:05:31.198Z,1.80
2023-01-27T22:10:36.645Z,1.90
2023-01-27T22:15:42.097Z,2.43
2023-01-27T22:20:47.737Z,2.47
2023-01-27T22:25:53.931Z,3.03
2023-01-27T22:31:02.437Z,2.53
2023-01-27T22:36:08.683Z,2.43
2023-01-27T22:41:14.086Z,3.23
2023-01-27T22:46:19.526Z,3.23
2023-01-27T22:51:24.977Z,3.53
2023-01-27T22:56:30.580Z,4.20
2023-01-27T23:01:36.060Z,4.30
2023-01-27T23:06:41.590Z,4.60
2023-01-27T23:11:47.055Z,4.60
2023-01-27T23:16:53.177Z,4.53
2023-01-27T23:21:58.640Z,4.53
2023-01-27T23:27:04.051Z,4.57
2023-01-27T23:32:09.759Z,4.17
2023-01-27T23:37:15.367Z,3.30
2023-01-27T23:42:21.019Z,2.80
2023-01-27T23:47:26.563Z,2.10
2023-01-27T23:52:33.651Z,2.27
2023-01-27T23:57:39.270Z,1.70
